sensor_id;sensor_type;location;lat;lon;timestamp;pressure;altitude;pressure_sealevel;temperature;humidity
64230;BME280;50547;49.498;0.092;2023-05-20T00:01:37;1021.09;;;12.08;83.63
64230;BME280;50547;49.498;0.092;2023-05-20T00:04:06;1021.03;;;12.09;83.48
64230;BME280;50547;49.498;0.092;2023-05-20T00:06:36;1021.01;;;12.10;83.61
64230;BME280;50547;49.498;0.092;2023-05-20T00:09:05;1021.01;;;12.08;83.86
64230;BME280;50547;49.498;0.092;2023-05-20T00:11:34;1021.01;;;12.09;83.78
64230;BME280;50547;49.498;0.092;2023-05-20T00:14:03;1020.99;;;12.07;83.86
64230;BME280;50547;49.498;0.092;2023-05-20T00:16:33;1021.01;;;12.08;83.91
64230;BME280;50547;49.498;0.092;2023-05-20T00:19:02;1020.97;;;12.08;83.88
64230;BME280;50547;49.498;0.092;2023-05-20T00:21:31;1020.97;;;12.03;84.30
64230;BME280;50547;49.498;0.092;2023-05-20T00:24:00;1020.82;;;12.03;84.36
64230;BME280;50547;49.498;0.092;2023-05-20T00:26:30;1020.93;;;12.09;83.96
64230;BME280;50547;49.498;0.092;2023-05-20T00:28:59;1021.11;;;12.02;84.58
64230;BME280;50547;49.498;0.092;2023-05-20T00:31:28;1021.01;;;12.06;84.33
64230;BME280;50547;49.498;0.092;2023-05-20T00:33:57;1020.95;;;12.06;84.43
64230;BME280;50547;49.498;0.092;2023-05-20T00:36:26;1020.93;;;12.00;84.87
64230;BME280;50547;49.498;0.092;2023-05-20T00:38:55;1020.93;;;12.04;84.71
64230;BME280;50547;49.498;0.092;2023-05-20T00:41:24;1020.78;;;11.99;84.92
64230;BME280;50547;49.498;0.092;2023-05-20T00:43:53;1020.80;;;12.00;85.03
64230;BME280;50547;49.498;0.092;2023-05-20T00:46:23;1020.78;;;12.05;84.64
64230;BME280;50547;49.498;0.092;2023-05-20T00:48:54;1020.71;;;11.95;85.32
64230;BME280;50547;49.498;0.092;2023-05-20T00:51:23;1020.75;;;11.99;85.19
64230;BME280;50547;49.498;0.092;2023-05-20T00:53:53;1020.73;;;12.01;85.01
64230;BME280;50547;49.498;0.092;2023-05-20T00:56:22;1020.71;;;12.06;84.79
64230;BME280;50547;49.498;0.092;2023-05-20T00:58:49;1020.63;;;12.12;84.49
64230;BME280;50547;49.498;0.092;2023-05-20T01:01:18;1020.61;;;12.03;85.07
64230;BME280;50547;49.498;0.092;2023-05-20T01:03:45;1020.61;;;12.06;85.00
64230;BME280;50547;49.498;0.092;2023-05-20T01:06:14;1020.57;;;11.99;85.57
64230;BME280;50547;49.498;0.092;2023-05-20T01:08:43;1020.55;;;12.05;85.19
64230;BME280;50547;49.498;0.092;2023-05-20T01:11:16;1020.53;;;12.06;85.09
64230;BME280;50547;49.498;0.092;2023-05-20T01:13:53;1020.45;;;12.10;85.04
64230;BME280;50547;49.498;0.092;2023-05-20T01:16:23;1020.47;;;12.09;85.25
64230;BME280;50547;49.498;0.092;2023-05-20T01:18:54;1020.39;;;12.10;85.14
64230;BME280;50547;49.498;0.092;2023-05-20T01:21:31;1020.43;;;12.15;84.82
64230;BME280;50547;49.498;0.092;2023-05-20T01:24:01;1020.37;;;12.11;85.22
64230;BME280;50547;49.498;0.092;2023-05-20T01:26:31;1020.35;;;12.14;85.10
64230;BME280;50547;49.498;0.092;2023-05-20T01:28:57;1020.37;;;12.15;85.06
64230;BME280;50547;49.498;0.092;2023-05-20T01:31:30;1020.33;;;12.12;85.28
64230;BME280;50547;49.498;0.092;2023-05-20T01:34:01;1020.27;;;12.10;85.40
64230;BME280;50547;49.498;0.092;2023-05-20T01:36:31;1020.29;;;12.10;85.38
64230;BME280;50547;49.498;0.092;2023-05-20T01:39:01;1020.25;;;12.03;85.94
64230;BME280;50547;49.498;0.092;2023-05-20T01:41:31;1020.20;;;11.95;86.35
64230;BME280;50547;49.498;0.092;2023-05-20T01:44:01;1020.16;;;12.05;85.61
64230;BME280;50547;49.498;0.092;2023-05-20T01:46:32;1020.31;;;12.00;85.89
64230;BME280;50547;49.498;0.092;2023-05-20T01:49:01;1020.18;;;11.98;86.07
64230;BME280;50547;49.498;0.092;2023-05-20T01:51:30;1020.16;;;12.02;85.62
64230;BME280;50547;49.498;0.092;2023-05-20T01:53:59;1020.18;;;12.05;85.56
64230;BME280;50547;49.498;0.092;2023-05-20T01:56:29;1020.10;;;12.05;85.33
64230;BME280;50547;49.498;0.092;2023-05-20T01:58:58;1020.14;;;12.05;85.42
64230;BME280;50547;49.498;0.092;2023-05-20T02:01:28;1020.14;;;11.98;86.02
64230;BME280;50547;49.498;0.092;2023-05-20T02:03:57;1020.14;;;12.08;85.22
64230;BME280;50547;49.498;0.092;2023-05-20T02:06:26;1020.06;;;12.03;85.33
64230;BME280;50547;49.498;0.092;2023-05-20T02:08:55;1020.06;;;12.08;85.17
64230;BME280;50547;49.498;0.092;2023-05-20T02:11:21;1020.06;;;12.06;85.32
64230;BME280;50547;49.498;0.092;2023-05-20T02:13:50;1020.04;;;12.00;85.65
64230;BME280;50547;49.498;0.092;2023-05-20T02:16:20;1020.06;;;12.02;85.63
64230;BME280;50547;49.498;0.092;2023-05-20T02:18:45;1020.00;;;12.00;85.75
64230;BME280;50547;49.498;0.092;2023-05-20T02:21:14;1020.00;;;12.01;85.58
64230;BME280;50547;49.498;0.092;2023-05-20T02:23:43;1019.96;;;12.04;85.46
64230;BME280;50547;49.498;0.092;2023-05-20T02:26:13;1019.96;;;11.95;85.91
64230;BME280;50547;49.498;0.092;2023-05-20T02:28:42;1019.92;;;12.04;85.29
64230;BME280;50547;49.498;0.092;2023-05-20T02:31:11;1019.84;;;12.05;85.22
64230;BME280;50547;49.498;0.092;2023-05-20T02:33:41;1019.83;;;12.07;85.08
64230;BME280;50547;49.498;0.092;2023-05-20T02:36:10;1019.86;;;12.01;85.52
64230;BME280;50547;49.498;0.092;2023-05-20T02:38:39;1019.81;;;11.98;85.83
64230;BME280;50547;49.498;0.092;2023-05-20T02:41:08;1019.75;;;11.99;85.55
64230;BME280;50547;49.498;0.092;2023-05-20T02:43:37;1019.75;;;12.00;85.58
64230;BME280;50547;49.498;0.092;2023-05-20T02:46:06;1019.69;;;12.03;85.21
64230;BME280;50547;49.498;0.092;2023-05-20T02:48:35;1019.84;;;12.01;85.43
64230;BME280;50547;49.498;0.092;2023-05-20T02:51:05;1019.67;;;11.99;85.53
64230;BME280;50547;49.498;0.092;2023-05-20T02:53:34;1019.67;;;12.03;85.25
64230;BME280;50547;49.498;0.092;2023-05-20T02:56:03;1019.65;;;12.01;85.46
64230;BME280;50547;49.498;0.092;2023-05-20T02:58:32;1019.57;;;12.00;85.62
64230;BME280;50547;49.498;0.092;2023-05-20T03:01:02;1019.61;;;11.99;85.73
64230;BME280;50547;49.498;0.092;2023-05-20T03:03:31;1019.65;;;11.99;85.64
64230;BME280;50547;49.498;0.092;2023-05-20T03:06:01;1019.65;;;12.03;85.46
64230;BME280;50547;49.498;0.092;2023-05-20T03:08:30;1019.61;;;12.00;85.63
64230;BME280;50547;49.498;0.092;2023-05-20T03:10:59;1019.51;;;12.02;85.39
64230;BME280;50547;49.498;0.092;2023-05-20T03:13:28;1019.53;;;11.98;85.63
64230;BME280;50547;49.498;0.092;2023-05-20T03:15:57;1019.65;;;12.00;85.62
64230;BME280;50547;49.498;0.092;2023-05-20T03:18:26;1019.63;;;11.98;85.71
64230;BME280;50547;49.498;0.092;2023-05-20T03:20:56;1019.61;;;11.98;85.62
64230;BME280;50547;49.498;0.092;2023-05-20T03:23:25;1019.63;;;11.98;85.72
64230;BME280;50547;49.498;0.092;2023-05-20T03:25:54;1019.55;;;11.95;85.93
64230;BME280;50547;49.498;0.092;2023-05-20T03:28:23;1019.59;;;11.99;85.51
64230;BME280;50547;49.498;0.092;2023-05-20T03:30:52;1019.47;;;11.95;85.72
64230;BME280;50547;49.498;0.092;2023-05-20T03:33:21;1019.53;;;11.98;85.80
64230;BME280;50547;49.498;0.092;2023-05-20T03:35:50;1019.45;;;11.99;85.57
64230;BME280;50547;49.498;0.092;2023-05-20T03:38:20;1019.49;;;11.98;85.84
64230;BME280;50547;49.498;0.092;2023-05-20T03:40:49;1019.53;;;11.97;85.88
64230;BME280;50547;49.498;0.092;2023-05-20T03:43:18;1019.47;;;11.94;86.11
64230;BME280;50547;49.498;0.092;2023-05-20T03:45:47;1019.59;;;11.89;86.41
64230;BME280;50547;49.498;0.092;2023-05-20T03:48:16;1019.53;;;11.91;86.15
64230;BME280;50547;49.498;0.092;2023-05-20T03:50:45;1019.53;;;11.98;85.85
64230;BME280;50547;49.498;0.092;2023-05-20T03:53:14;1019.53;;;11.96;86.03
64230;BME280;50547;49.498;0.092;2023-05-20T03:55:43;1019.47;;;11.90;86.39
64230;BME280;50547;49.498;0.092;2023-05-20T03:58:13;1019.51;;;11.95;86.32
64230;BME280;50547;49.498;0.092;2023-05-20T04:00:42;1019.49;;;11.89;86.51
64230;BME280;50547;49.498;0.092;2023-05-20T04:03:11;1019.45;;;11.92;86.42
64230;BME280;50547;49.498;0.092;2023-05-20T04:05:40;1019.49;;;11.97;86.24
64230;BME280;50547;49.498;0.092;2023-05-20T04:08:09;1019.45;;;11.97;86.21
64230;BME280;50547;49.498;0.092;2023-05-20T04:10:39;1019.45;;;11.98;86.21
64230;BME280;50547;49.498;0.092;2023-05-20T04:13:09;1019.41;;;12.02;86.10
64230;BME280;50547;49.498;0.092;2023-05-20T04:15:39;1019.34;;;11.99;86.32
64230;BME280;50547;49.498;0.092;2023-05-20T04:18:08;1019.43;;;12.04;86.05
64230;BME280;50547;49.498;0.092;2023-05-20T04:20:37;1019.49;;;12.04;86.11
64230;BME280;50547;49.498;0.092;2023-05-20T04:23:06;1019.49;;;12.03;86.38
64230;BME280;50547;49.498;0.092;2023-05-20T04:25:36;1019.43;;;12.04;86.32
64230;BME280;50547;49.498;0.092;2023-05-20T04:28:05;1019.53;;;12.08;86.08
64230;BME280;50547;49.498;0.092;2023-05-20T04:30:34;1019.49;;;12.06;86.26
64230;BME280;50547;49.498;0.092;2023-05-20T04:33:03;1019.51;;;12.11;86.13
64230;BME280;50547;49.498;0.092;2023-05-20T04:35:32;1019.53;;;12.13;85.93
64230;BME280;50547;49.498;0.092;2023-05-20T04:38:02;1019.41;;;12.07;86.57
64230;BME280;50547;49.498;0.092;2023-05-20T04:40:31;1019.47;;;12.04;86.80
64230;BME280;50547;49.498;0.092;2023-05-20T04:43:00;1019.45;;;12.09;86.31
64230;BME280;50547;49.498;0.092;2023-05-20T04:45:29;1019.41;;;12.11;86.40
64230;BME280;50547;49.498;0.092;2023-05-20T04:47:58;1019.49;;;12.11;86.41
64230;BME280;50547;49.498;0.092;2023-05-20T04:50:27;1019.39;;;12.18;86.10
64230;BME280;50547;49.498;0.092;2023-05-20T04:52:56;1019.47;;;12.18;86.24
64230;BME280;50547;49.498;0.092;2023-05-20T04:55:25;1019.49;;;12.23;86.02
64230;BME280;50547;49.498;0.092;2023-05-20T04:57:55;1019.49;;;12.23;86.30
64230;BME280;50547;49.498;0.092;2023-05-20T05:00:24;1019.47;;;12.27;86.17
64230;BME280;50547;49.498;0.092;2023-05-20T05:02:53;1019.47;;;12.25;86.33
64230;BME280;50547;49.498;0.092;2023-05-20T05:05:22;1019.53;;;12.31;86.14
64230;BME280;50547;49.498;0.092;2023-05-20T05:07:51;1019.45;;;12.30;86.36
64230;BME280;50547;49.498;0.092;2023-05-20T05:10:20;1019.55;;;12.38;85.94
64230;BME280;50547;49.498;0.092;2023-05-20T05:12:49;1019.45;;;12.42;85.85
64230;BME280;50547;49.498;0.092;2023-05-20T05:15:19;1019.47;;;12.47;85.68
64230;BME280;50547;49.498;0.092;2023-05-20T05:17:48;1019.47;;;12.56;85.25
64230;BME280;50547;49.498;0.092;2023-05-20T05:20:18;1019.47;;;12.52;85.52
64230;BME280;50547;49.498;0.092;2023-05-20T05:22:47;1019.43;;;12.60;85.21
64230;BME280;50547;49.498;0.092;2023-05-20T05:25:16;1019.43;;;12.59;85.37
64230;BME280;50547;49.498;0.092;2023-05-20T05:27:45;1019.43;;;12.66;84.79
64230;BME280;50547;49.498;0.092;2023-05-20T05:30:15;1019.41;;;12.67;84.97
64230;BME280;50547;49.498;0.092;2023-05-20T05:32:44;1019.36;;;12.72;84.94
64230;BME280;50547;49.498;0.092;2023-05-20T05:35:13;1019.45;;;12.71;84.87
64230;BME280;50547;49.498;0.092;2023-05-20T05:37:42;1019.43;;;12.72;84.77
64230;BME280;50547;49.498;0.092;2023-05-20T05:40:12;1019.53;;;12.75;84.63
64230;BME280;50547;49.498;0.092;2023-05-20T05:42:41;1019.43;;;12.74;84.76
64230;BME280;50547;49.498;0.092;2023-05-20T05:45:10;1019.39;;;12.84;83.96
64230;BME280;50547;49.498;0.092;2023-05-20T05:47:39;1019.36;;;12.93;83.68
64230;BME280;50547;49.498;0.092;2023-05-20T05:50:09;1019.36;;;13.10;83.08
64230;BME280;50547;49.498;0.092;2023-05-20T05:52:38;1019.37;;;13.15;82.97
64230;BME280;50547;49.498;0.092;2023-05-20T05:55:08;1019.43;;;13.23;82.83
64230;BME280;50547;49.498;0.092;2023-05-20T05:57:37;1019.41;;;13.31;82.77
64230;BME280;50547;49.498;0.092;2023-05-20T06:00:08;1019.36;;;13.45;81.97
64230;BME280;50547;49.498;0.092;2023-05-20T06:02:37;1019.41;;;13.49;81.93
64230;BME280;50547;49.498;0.092;2023-05-20T06:05:07;1019.41;;;13.75;80.93
64230;BME280;50547;49.498;0.092;2023-05-20T06:07:36;1019.36;;;13.67;81.77
64230;BME280;50547;49.498;0.092;2023-05-20T06:10:07;1019.39;;;13.83;81.17
64230;BME280;50547;49.498;0.092;2023-05-20T06:12:36;1019.36;;;13.80;81.00
64230;BME280;50547;49.498;0.092;2023-05-20T06:15:06;1019.37;;;13.72;81.63
64230;BME280;50547;49.498;0.092;2023-05-20T06:17:36;1019.34;;;13.70;82.02
64230;BME280;50547;49.498;0.092;2023-05-20T06:20:06;1019.30;;;13.89;81.18
64230;BME280;50547;49.498;0.092;2023-05-20T06:22:36;1019.37;;;13.93;81.20
64230;BME280;50547;49.498;0.092;2023-05-20T06:25:07;1019.30;;;13.93;80.89
64230;BME280;50547;49.498;0.092;2023-05-20T06:27:36;1019.28;;;13.98;80.95
64230;BME280;50547;49.498;0.092;2023-05-20T06:30:07;1019.24;;;14.10;80.13
64230;BME280;50547;49.498;0.092;2023-05-20T06:32:36;1019.14;;;14.09;80.16
64230;BME280;50547;49.498;0.092;2023-05-20T06:35:06;1019.26;;;13.93;81.25
64230;BME280;50547;49.498;0.092;2023-05-20T06:37:36;1019.34;;;13.96;81.08
64230;BME280;50547;49.498;0.092;2023-05-20T06:40:06;1019.30;;;13.98;80.77
64230;BME280;50547;49.498;0.092;2023-05-20T06:42:36;1019.32;;;14.04;80.36
64230;BME280;50547;49.498;0.092;2023-05-20T06:45:02;1019.32;;;14.03;80.24
64230;BME280;50547;49.498;0.092;2023-05-20T06:47:31;1019.24;;;14.17;79.48
64230;BME280;50547;49.498;0.092;2023-05-20T06:50:00;1019.22;;;14.09;80.17
64230;BME280;50547;49.498;0.092;2023-05-20T06:52:30;1018.98;;;14.08;80.27
64230;BME280;50547;49.498;0.092;2023-05-20T06:54:59;1019.26;;;14.05;80.77
64230;BME280;50547;49.498;0.092;2023-05-20T06:57:28;1019.24;;;14.12;80.48
64230;BME280;50547;49.498;0.092;2023-05-20T06:59:57;1019.20;;;14.45;79.11
64230;BME280;50547;49.498;0.092;2023-05-20T07:02:26;1019.32;;;14.43;79.10
64230;BME280;50547;49.498;0.092;2023-05-20T07:04:55;1019.36;;;14.43;78.82
64230;BME280;50547;49.498;0.092;2023-05-20T07:07:24;1019.26;;;14.57;78.08
64230;BME280;50547;49.498;0.092;2023-05-20T07:09:54;1019.22;;;14.67;78.01
64230;BME280;50547;49.498;0.092;2023-05-20T07:12:23;1019.22;;;14.82;77.27
64230;BME280;50547;49.498;0.092;2023-05-20T07:14:54;1019.24;;;14.70;78.11
64230;BME280;50547;49.498;0.092;2023-05-20T07:17:23;1019.16;;;14.98;76.42
64230;BME280;50547;49.498;0.092;2023-05-20T07:19:52;1019.26;;;14.65;78.02
64230;BME280;50547;49.498;0.092;2023-05-20T07:22:22;1019.16;;;14.53;78.68
64230;BME280;50547;49.498;0.092;2023-05-20T07:24:51;1019.22;;;15.04;76.40
64230;BME280;50547;49.498;0.092;2023-05-20T07:27:20;1019.12;;;14.82;76.97
64230;BME280;50547;49.498;0.092;2023-05-20T07:29:49;1019.30;;;14.69;77.90
64230;BME280;50547;49.498;0.092;2023-05-20T07:32:18;1019.22;;;14.88;77.24
64230;BME280;50547;49.498;0.092;2023-05-20T07:34:48;1019.22;;;15.13;76.01
64230;BME280;50547;49.498;0.092;2023-05-20T07:37:17;1019.20;;;15.41;74.83
64230;BME280;50547;49.498;0.092;2023-05-20T07:39:46;1019.14;;;15.43;74.81
64230;BME280;50547;49.498;0.092;2023-05-20T07:42:15;1019.14;;;15.65;74.14
64230;BME280;50547;49.498;0.092;2023-05-20T07:44:44;1019.14;;;15.47;74.65
64230;BME280;50547;49.498;0.092;2023-05-20T07:47:13;1018.96;;;15.30;75.58
64230;BME280;50547;49.498;0.092;2023-05-20T07:49:42;1019.04;;;15.37;75.25
64230;BME280;50547;49.498;0.092;2023-05-20T07:52:11;1019.14;;;15.45;74.83
64230;BME280;50547;49.498;0.092;2023-05-20T07:54:40;1019.10;;;15.62;74.24
64230;BME280;50547;49.498;0.092;2023-05-20T07:57:09;1019.14;;;15.59;75.08
64230;BME280;50547;49.498;0.092;2023-05-20T07:59:39;1019.08;;;15.60;75.53
64230;BME280;50547;49.498;0.092;2023-05-20T08:02:08;1019.10;;;15.94;73.02
64230;BME280;50547;49.498;0.092;2023-05-20T08:04:37;1019.16;;;15.81;74.20
64230;BME280;50547;49.498;0.092;2023-05-20T08:07:06;1019.02;;;15.69;75.16
64230;BME280;50547;49.498;0.092;2023-05-20T08:09:35;1019.00;;;15.80;74.38
64230;BME280;50547;49.498;0.092;2023-05-20T08:12:06;1018.90;;;15.97;72.95
64230;BME280;50547;49.498;0.092;2023-05-20T08:14:36;1018.87;;;15.89;73.07
64230;BME280;50547;49.498;0.092;2023-05-20T08:17:06;1018.94;;;15.80;73.98
64230;BME280;50547;49.498;0.092;2023-05-20T08:19:35;1018.92;;;15.99;72.80
64230;BME280;50547;49.498;0.092;2023-05-20T08:22:04;1018.83;;;15.56;76.05
64230;BME280;50547;49.498;0.092;2023-05-20T08:24:33;1018.89;;;15.40;76.37
64230;BME280;50547;49.498;0.092;2023-05-20T08:27:03;1018.85;;;15.53;75.14
64230;BME280;50547;49.498;0.092;2023-05-20T08:29:32;1018.77;;;15.50;75.22
64230;BME280;50547;49.498;0.092;2023-05-20T08:32:01;1018.73;;;15.58;74.29
64230;BME280;50547;49.498;0.092;2023-05-20T08:34:31;1018.79;;;15.63;74.12
64230;BME280;50547;49.498;0.092;2023-05-20T08:37:00;1018.87;;;16.05;72.10
64230;BME280;50547;49.498;0.092;2023-05-20T08:39:29;1018.87;;;16.36;71.85
64230;BME280;50547;49.498;0.092;2023-05-20T08:41:59;1018.79;;;16.91;69.90
64230;BME280;50547;49.498;0.092;2023-05-20T08:44:29;1018.87;;;16.36;72.11
64230;BME280;50547;49.498;0.092;2023-05-20T08:46:58;1018.92;;;16.53;71.69
64230;BME280;50547;49.498;0.092;2023-05-20T08:49:28;1018.87;;;16.79;70.02
64230;BME280;50547;49.498;0.092;2023-05-20T08:51:57;1018.89;;;16.16;74.27
64230;BME280;50547;49.498;0.092;2023-05-20T08:54:42;1018.87;;;16.29;73.52
64230;BME280;50547;49.498;0.092;2023-05-20T08:57:12;1018.85;;;16.13;73.85
64230;BME280;50547;49.498;0.092;2023-05-20T08:59:44;1018.83;;;16.26;73.27
64230;BME280;50547;49.498;0.092;2023-05-20T09:02:13;1018.83;;;16.17;72.94
64230;BME280;50547;49.498;0.092;2023-05-20T09:04:42;1018.61;;;16.12;73.36
64230;BME280;50547;49.498;0.092;2023-05-20T09:07:12;1018.79;;;15.95;74.33
64230;BME280;50547;49.498;0.092;2023-05-20T09:09:41;1018.79;;;16.05;73.30
64230;BME280;50547;49.498;0.092;2023-05-20T09:12:10;1018.92;;;16.46;71.19
64230;BME280;50547;49.498;0.092;2023-05-20T09:14:39;1018.75;;;16.20;72.96
64230;BME280;50547;49.498;0.092;2023-05-20T09:17:09;1018.75;;;16.71;70.60
64230;BME280;50547;49.498;0.092;2023-05-20T09:19:39;1018.65;;;16.87;69.79
64230;BME280;50547;49.498;0.092;2023-05-20T09:22:08;1018.73;;;16.54;72.90
64230;BME280;50547;49.498;0.092;2023-05-20T09:24:37;1018.83;;;16.55;71.62
64230;BME280;50547;49.498;0.092;2023-05-20T09:27:08;1018.75;;;16.45;72.19
64230;BME280;50547;49.498;0.092;2023-05-20T09:29:37;1018.57;;;16.47;72.29
64230;BME280;50547;49.498;0.092;2023-05-20T09:32:06;1018.63;;;16.41;72.42
64230;BME280;50547;49.498;0.092;2023-05-20T09:34:36;1018.57;;;16.44;72.40
64230;BME280;50547;49.498;0.092;2023-05-20T09:37:06;1018.55;;;17.24;68.23
64230;BME280;50547;49.498;0.092;2023-05-20T09:39:41;1018.69;;;17.74;66.34
64230;BME280;50547;49.498;0.092;2023-05-20T09:42:17;1018.55;;;16.83;71.34
64230;BME280;50547;49.498;0.092;2023-05-20T09:44:49;1018.27;;;16.72;72.88
64230;BME280;50547;49.498;0.092;2023-05-20T09:47:20;1018.61;;;16.79;71.33
64230;BME280;50547;49.498;0.092;2023-05-20T09:49:49;1018.51;;;16.65;72.22
64230;BME280;50547;49.498;0.092;2023-05-20T09:52:20;1018.51;;;16.58;72.00
64230;BME280;50547;49.498;0.092;2023-05-20T09:54:50;1018.45;;;16.53;71.96
64230;BME280;50547;49.498;0.092;2023-05-20T09:57:19;1018.42;;;17.06;69.42
64230;BME280;50547;49.498;0.092;2023-05-20T09:59:49;1018.57;;;16.85;70.89
64230;BME280;50547;49.498;0.092;2023-05-20T10:02:19;1018.63;;;16.59;72.75
64230;BME280;50547;49.498;0.092;2023-05-20T10:04:50;1018.47;;;16.47;73.40
64230;BME280;50547;49.498;0.092;2023-05-20T10:07:40;1018.51;;;16.42;73.18
64230;BME280;50547;49.498;0.092;2023-05-20T10:10:22;1018.53;;;16.60;71.86
64230;BME280;50547;49.498;0.092;2023-05-20T10:13:02;1018.38;;;16.41;72.84
64230;BME280;50547;49.498;0.092;2023-05-20T10:15:40;1018.27;;;17.00;69.57
64230;BME280;50547;49.498;0.092;2023-05-20T10:18:22;1018.23;;;16.54;71.88
64230;BME280;50547;49.498;0.092;2023-05-20T10:20:57;1018.27;;;16.28;73.23
64230;BME280;50547;49.498;0.092;2023-05-20T10:23:28;1018.25;;;16.43;72.67
64230;BME280;50547;49.498;0.092;2023-05-20T10:25:57;1018.23;;;16.90;69.60
64230;BME280;50547;49.498;0.092;2023-05-20T10:28:28;1018.09;;;17.11;69.09
64230;BME280;50547;49.498;0.092;2023-05-20T10:30:58;1018.09;;;16.54;71.80
64230;BME280;50547;49.498;0.092;2023-05-20T10:33:28;1018.13;;;16.59;71.89
64230;BME280;50547;49.498;0.092;2023-05-20T10:35:59;1018.21;;;17.44;68.57
64230;BME280;50547;49.498;0.092;2023-05-20T10:38:28;1017.96;;;17.30;69.50
64230;BME280;50547;49.498;0.092;2023-05-20T10:41:07;1018.07;;;17.19;70.65
64230;BME280;50547;49.498;0.092;2023-05-20T10:43:37;1017.99;;;17.18;70.19
64230;BME280;50547;49.498;0.092;2023-05-20T10:46:17;1018.09;;;17.43;69.78
64230;BME280;50547;49.498;0.092;2023-05-20T10:48:46;1018.05;;;17.61;68.40
64230;BME280;50547;49.498;0.092;2023-05-20T10:51:15;1018.05;;;17.55;69.21
64230;BME280;50547;49.498;0.092;2023-05-20T10:53:45;1017.99;;;17.28;70.64
64230;BME280;50547;49.498;0.092;2023-05-20T10:56:16;1017.99;;;17.58;68.89
64230;BME280;50547;49.498;0.092;2023-05-20T10:58:46;1018.01;;;17.33;70.16
64230;BME280;50547;49.498;0.092;2023-05-20T11:01:16;1017.97;;;17.51;69.63
64230;BME280;50547;49.498;0.092;2023-05-20T11:03:46;1017.99;;;17.62;69.07
64230;BME280;50547;49.498;0.092;2023-05-20T11:06:17;1017.88;;;17.23;70.48
64230;BME280;50547;49.498;0.092;2023-05-20T11:08:46;1017.80;;;17.57;68.55
64230;BME280;50547;49.498;0.092;2023-05-20T11:11:16;1017.97;;;17.26;70.50
64230;BME280;50547;49.498;0.092;2023-05-20T11:13:49;1017.86;;;17.27;70.22
64230;BME280;50547;49.498;0.092;2023-05-20T11:16:19;1017.92;;;17.83;68.36
64230;BME280;50547;49.498;0.092;2023-05-20T11:18:48;1017.96;;;17.99;68.05
64230;BME280;50547;49.498;0.092;2023-05-20T11:21:18;1017.94;;;17.96;67.73
64230;BME280;50547;49.498;0.092;2023-05-20T11:23:50;1017.92;;;18.06;67.16
64230;BME280;50547;49.498;0.092;2023-05-20T11:26:19;1017.96;;;18.19;67.57
64230;BME280;50547;49.498;0.092;2023-05-20T11:28:49;1017.96;;;18.71;65.07
64230;BME280;50547;49.498;0.092;2023-05-20T11:31:18;1017.76;;;18.24;67.75
64230;BME280;50547;49.498;0.092;2023-05-20T11:33:49;1017.99;;;17.95;68.91
64230;BME280;50547;49.498;0.092;2023-05-20T11:36:21;1017.84;;;18.11;68.41
64230;BME280;50547;49.498;0.092;2023-05-20T11:38:50;1017.86;;;17.97;68.68
64230;BME280;50547;49.498;0.092;2023-05-20T11:41:22;1017.62;;;17.47;69.75
64230;BME280;50547;49.498;0.092;2023-05-20T11:43:56;1017.82;;;17.61;69.10
64230;BME280;50547;49.498;0.092;2023-05-20T11:46:27;1017.84;;;18.03;67.13
64230;BME280;50547;49.498;0.092;2023-05-20T11:48:56;1017.82;;;18.39;66.20
64230;BME280;50547;49.498;0.092;2023-05-20T11:51:26;1017.78;;;18.19;66.72
64230;BME280;50547;49.498;0.092;2023-05-20T11:53:58;1017.74;;;18.50;66.04
64230;BME280;50547;49.498;0.092;2023-05-20T11:56:28;1017.72;;;18.26;67.48
64230;BME280;50547;49.498;0.092;2023-05-20T11:58:59;1017.70;;;17.94;68.64
64230;BME280;50547;49.498;0.092;2023-05-20T12:01:30;1017.72;;;17.92;68.83
64230;BME280;50547;49.498;0.092;2023-05-20T12:04:00;1017.94;;;17.51;70.11
64230;BME280;50547;49.498;0.092;2023-05-20T12:06:29;1017.66;;;17.77;68.39
64230;BME280;50547;49.498;0.092;2023-05-20T12:09:00;1017.64;;;17.44;69.63
64230;BME280;50547;49.498;0.092;2023-05-20T12:11:30;1017.49;;;17.98;66.81
64230;BME280;50547;49.498;0.092;2023-05-20T12:13:59;1017.58;;;17.83;67.48
64230;BME280;50547;49.498;0.092;2023-05-20T12:16:29;1017.68;;;17.61;68.98
64230;BME280;50547;49.498;0.092;2023-05-20T12:18:59;1017.47;;;17.46;69.87
64230;BME280;50547;49.498;0.092;2023-05-20T12:21:29;1017.60;;;17.72;68.99
64230;BME280;50547;49.498;0.092;2023-05-20T12:23:58;1017.55;;;17.89;68.08
64230;BME280;50547;49.498;0.092;2023-05-20T12:26:28;1017.58;;;18.07;67.24
64230;BME280;50547;49.498;0.092;2023-05-20T12:28:57;1017.45;;;18.20;66.71
64230;BME280;50547;49.498;0.092;2023-05-20T12:31:26;1017.51;;;18.62;64.47
64230;BME280;50547;49.498;0.092;2023-05-20T12:33:56;1017.49;;;18.75;63.15
64230;BME280;50547;49.498;0.092;2023-05-20T12:36:26;1017.53;;;18.18;66.53
64230;BME280;50547;49.498;0.092;2023-05-20T12:38:55;1017.41;;;18.18;66.67
64230;BME280;50547;49.498;0.092;2023-05-20T12:41:24;1017.49;;;18.63;64.53
64230;BME280;50547;49.498;0.092;2023-05-20T12:43:54;1017.33;;;18.84;63.12
64230;BME280;50547;49.498;0.092;2023-05-20T12:46:24;1017.41;;;18.94;63.37
64230;BME280;50547;49.498;0.092;2023-05-20T12:49:40;1017.53;;;19.36;60.83
64230;BME280;50547;49.498;0.092;2023-05-20T12:54:52;1017.37;;;19.53;60.86
64230;BME280;50547;49.498;0.092;2023-05-20T12:57:22;1017.47;;;19.23;62.86
64230;BME280;50547;49.498;0.092;2023-05-20T12:59:50;1017.49;;;19.68;61.04
64230;BME280;50547;49.498;0.092;2023-05-20T13:02:19;1017.39;;;18.87;64.97
64230;BME280;50547;49.498;0.092;2023-05-20T13:04:48;1017.37;;;19.40;62.18
64230;BME280;50547;49.498;0.092;2023-05-20T13:07:17;1017.23;;;18.95;63.43
64230;BME280;50547;49.498;0.092;2023-05-20T13:09:47;1017.33;;;18.90;63.88
64230;BME280;50547;49.498;0.092;2023-05-20T13:12:16;1017.37;;;19.49;60.72
64230;BME280;50547;49.498;0.092;2023-05-20T13:14:45;1017.27;;;19.63;60.07
64230;BME280;50547;49.498;0.092;2023-05-20T13:17:14;1017.29;;;19.56;59.79
64230;BME280;50547;49.498;0.092;2023-05-20T13:19:44;1017.27;;;19.37;61.20
64230;BME280;50547;49.498;0.092;2023-05-20T13:22:13;1017.35;;;19.17;62.17
64230;BME280;50547;49.498;0.092;2023-05-20T13:24:42;1017.23;;;19.05;62.81
64230;BME280;50547;49.498;0.092;2023-05-20T13:27:12;1017.13;;;19.05;62.53